Time;durP1;ratioP1;P1;durP2;ratioP2;P2;SDS_P1;SDS_P2;PMS_P1;PMS_P2;Temp;Humidity;BMP_temperature;BMP_pressure;BME280_temperature;BME280_humidity;BME280_pressure;Samples;Min_cycle;Max_cycle;Signal;HPM_P1;HPM_P2
2023/01/10 00:01:29;;;;;;;7.65;3.58;;;;;;;9.82;100.00;99947.38;5035767;28;20493;-71
2023/01/10 00:03:54;;;;;;;8.98;4.53;;;;;;;9.70;100.00;99955.69;5055281;28;20073;-70
2023/01/10 00:06:20;;;;;;;16.52;4.43;;;;;;;9.76;100.00;99955.00;5057743;28;20519;-70
2023/01/10 00:08:45;;;;;;;13.75;3.83;;;;;;;9.66;100.00;99960.22;5048367;28;20045;-70
2023/01/10 00:13:55;;;;;;;11.13;4.57;;;;;;;9.61;100.00;99969.41;5042631;28;20029;-70
2023/01/10 00:16:21;;;;;;;7.03;3.08;;;;;;;9.62;100.00;99970.19;5047934;28;20037;-71
2023/01/10 00:18:47;;;;;;;4.30;2.50;;;;;;;9.66;100.00;99982.53;5037798;28;20032;-70
2023/01/10 00:21:16;;;;;;;9.30;4.20;;;;;;;9.78;100.00;99992.28;5051837;28;20045;-71
2023/01/10 00:23:44;;;;;;;9.20;3.13;;;;;;;9.71;100.00;99989.50;5053365;28;20021;-70
2023/01/10 00:26:10;;;;;;;9.27;4.00;;;;;;;9.74;100.00;99983.38;5052223;28;20033;-71
2023/01/10 00:28:38;;;;;;;9.82;4.00;;;;;;;9.70;100.00;99994.09;5051916;28;20508;-71
2023/01/10 00:31:05;;;;;;;6.43;3.47;;;;;;;9.70;99.70;99996.00;5033940;28;20045;-69
2023/01/10 00:33:32;;;;;;;12.48;2.97;;;;;;;9.73;99.71;100008.72;5057386;28;20060;-69
2023/01/10 00:35:59;;;;;;;4.22;2.28;;;;;;;9.73;99.79;100006.03;5043728;28;20043;-70
2023/01/10 00:38:24;;;;;;;8.35;2.45;;;;;;;9.67;100.00;100005.59;5037419;28;20063;-70
2023/01/10 00:40:50;;;;;;;4.15;2.25;;;;;;;9.50;100.00;100010.72;5046572;28;20033;-70
2023/01/10 00:44:00;;;;;;;7.40;2.67;;;;;;;9.59;100.00;100008.53;5035660;28;20035;-69
2023/01/10 00:46:03;;;;;;;9.13;2.40;;;;;;;9.61;100.00;100011.63;5044007;28;20079;-69
2023/01/10 00:48:29;;;;;;;10.75;3.08;;;;;;;9.64;100.00;100008.25;5048044;28;20130;-70
2023/01/10 00:50:54;;;;;;;8.85;2.40;;;;;;;9.69;99.60;100016.75;5056403;28;20037;-69
2023/01/10 00:53:21;;;;;;;12.80;2.95;;;;;;;9.63;100.00;100017.44;5052123;28;20370;-70
2023/01/10 00:55:46;;;;;;;8.10;2.63;;;;;;;9.70;100.00;100023.66;5043621;28;20025;-70
2023/01/10 00:58:13;;;;;;;8.07;3.03;;;;;;;9.60;100.00;100024.28;5048776;28;20071;-70
2023/01/10 01:00:39;;;;;;;2.30;1.90;;;;;;;9.58;100.00;100031.94;5057341;28;20396;-70
2023/01/10 01:03:06;;;;;;;4.70;2.88;;;;;;;9.69;100.00;100040.16;5048737;28;20033;-70
2023/01/10 01:05:31;;;;;;;6.45;2.38;;;;;;;9.74;99.97;100054.06;5053442;28;20112;-70
2023/01/10 01:07:57;;;;;;;5.85;2.60;;;;;;;9.63;99.44;100052.38;5051686;28;20108;-70
2023/01/10 01:10:25;;;;;;;5.32;2.53;;;;;;;9.69;100.00;100053.59;5038847;28;20037;-70
2023/01/10 01:12:54;;;;;;;5.53;2.65;;;;;;;9.65;100.00;100058.94;5041016;28;20128;-70
2023/01/10 01:15:20;;;;;;;5.75;2.50;;;;;;;9.68;99.73;100057.44;5038262;28;20036;-70
2023/01/10 01:17:46;;;;;;;3.75;2.13;;;;;;;9.58;99.73;100072.25;5050845;28;20094;-70
2023/01/10 01:20:13;;;;;;;3.05;2.22;;;;;;;9.63;99.76;100081.94;5051187;28;20029;-69
2023/01/10 01:22:38;;;;;;;6.82;2.78;;;;;;;9.70;99.75;100085.50;5034444;28;20116;-70
2023/01/10 01:25:04;;;;;;;7.50;4.00;;;;;;;9.69;99.68;100097.41;5049309;28;20037;-70
2023/01/10 01:27:30;;;;;;;3.35;2.15;;;;;;;9.73;99.88;100105.53;5050270;28;20040;-69
2023/01/10 01:29:56;;;;;;;15.50;3.58;;;;;;;9.70;99.14;100109.69;5050252;28;20036;-70
2023/01/10 01:32:22;;;;;;;10.32;2.45;;;;;;;9.72;98.99;100115.50;5051974;28;20047;-70
2023/01/10 01:34:47;;;;;;;5.40;2.13;;;;;;;9.69;99.38;100129.66;5058241;28;20033;-71
2023/01/10 01:37:12;;;;;;;10.05;3.55;;;;;;;9.65;99.56;100134.22;5047231;28;20051;-69
2023/01/10 01:39:38;;;;;;;10.43;2.28;;;;;;;9.59;99.49;100130.28;5040693;28;20029;-69
2023/01/10 01:42:05;;;;;;;5.72;2.50;;;;;;;9.58;99.44;100142.16;5045050;28;20037;-68
2023/01/10 01:44:34;;;;;;;10.02;2.63;;;;;;;9.45;99.02;100145.38;5050989;28;20527;-69
2023/01/10 01:47:26;;;;;;;14.60;3.55;;;;;;;9.51;99.51;100160.06;5051721;28;20489;-69
2023/01/10 01:49:52;;;;;;;11.25;3.13;;;;;;;9.54;99.37;100160.13;5035367;28;20037;-70
2023/01/10 01:52:27;;;;;;;6.80;2.60;;;;;;;9.57;99.45;100164.81;5049009;28;20044;-69
2023/01/10 01:54:55;;;;;;;5.70;3.28;;;;;;;9.56;98.52;100167.84;5050786;28;20029;-70
2023/01/10 01:57:25;;;;;;;4.68;2.58;;;;;;;9.49;98.79;100167.72;5048209;28;20029;-70
2023/01/10 01:59:53;;;;;;;7.45;3.22;;;;;;;9.46;98.19;100171.94;5036256;28;20032;-70
2023/01/10 02:02:23;;;;;;;4.28;2.13;;;;;;;9.49;97.90;100165.81;5046925;28;20032;-71
2023/01/10 02:04:56;;;;;;;5.80;2.77;;;;;;;9.41;98.35;100174.09;5042074;28;20037;-70
2023/01/10 02:07:24;;;;;;;6.47;2.85;;;;;;;9.37;97.77;100173.31;5046686;28;20040;-70
2023/01/10 02:10:00;;;;;;;9.70;2.53;;;;;;;9.23;97.77;100189.16;5049898;28;20047;-70
2023/01/10 02:12:28;;;;;;;5.65;2.50;;;;;;;9.29;97.68;100193.13;5049459;28;20045;-69
2023/01/10 02:14:55;;;;;;;4.10;2.08;;;;;;;9.31;98.58;100194.28;5050009;28;20037;-70
2023/01/10 02:17:21;;;;;;;4.35;2.53;;;;;;;9.29;98.08;100204.63;5061273;28;20141;-70
2023/01/10 02:20:02;;;;;;;8.05;2.75;;;;;;;9.36;97.73;100212.03;5053720;28;20556;-70
2023/01/10 02:22:42;;;;;;;6.57;2.55;;;;;;;9.36;97.69;100209.34;5042052;28;20083;-70
2023/01/10 02:25:45;;;;;;;4.97;2.17;;;;;;;9.35;97.53;100210.50;5046114;28;20043;-70
2023/01/10 02:28:44;;;;;;;4.13;1.77;;;;;;;9.37;97.56;100216.28;5050014;28;20021;-70
2023/01/10 02:32:06;;;;;;;3.60;2.22;;;;;;;9.38;97.81;100212.47;5038981;28;20059;-69
2023/01/10 02:34:45;;;;;;;7.10;2.20;;;;;;;9.34;97.72;100225.03;4952824;28;20051;-69
2023/01/10 02:37:18;;;;;;;8.30;2.20;;;;;;;9.30;97.81;100229.59;4976050;28;20160;-69
2023/01/10 02:40:06;;;;;;;6.50;2.60;;;;;;;9.35;98.02;100223.94;5026827;28;20029;-69
2023/01/10 02:42:42;;;;;;;4.45;2.13;;;;;;;9.34;98.05;100233.91;5045764;28;20088;-71
2023/01/10 02:45:35;;;;;;;9.60;2.20;;;;;;;9.23;97.45;100238.31;5031126;28;20044;-68
2023/01/10 02:48:01;;;;;;;7.60;2.70;;;;;;;9.31;97.41;100241.91;5037784;28;20067;-69
2023/01/10 02:50:41;;;;;;;4.20;2.25;;;;;;;9.31;97.63;100248.03;5032498;28;20524;-68
2023/01/10 02:53:31;;;;;;;4.90;2.00;;;;;;;9.37;96.93;100251.97;5032374;28;20059;-68
2023/01/10 02:56:48;;;;;;;3.22;2.00;;;;;;;9.31;97.25;100256.09;5050119;28;20037;-69
2023/01/10 03:00:00;;;;;;;10.13;2.67;;;;;;;9.28;97.35;100251.44;4993284;28;20052;-68
2023/01/10 03:02:38;;;;;;;4.90;2.08;;;;;;;9.15;97.77;100257.31;5014321;28;20408;-68
2023/01/10 03:05:16;;;;;;;3.47;2.10;;;;;;;9.18;97.63;100262.75;5038568;28;20125;-69
2023/01/10 03:07:53;;;;;;;5.43;2.42;;;;;;;9.25;98.06;100265.59;5014755;28;20036;-69
2023/01/10 03:10:39;;;;;;;3.22;2.30;;;;;;;9.23;97.62;100272.44;5040942;28;20036;-68
2023/01/10 03:13:11;;;;;;;6.05;2.17;;;;;;;9.22;98.08;100260.13;5037933;28;20064;-70
2023/01/10 03:15:39;;;;;;;5.50;2.22;;;;;;;9.19;97.28;100268.91;5053918;28;20125;-68
2023/01/10 03:18:15;;;;;;;4.38;2.03;;;;;;;9.13;97.96;100275.69;5041800;28;20505;-68
2023/01/10 03:20:43;;;;;;;5.55;2.17;;;;;;;9.18;98.06;100273.50;5036215;28;20037;-69
2023/01/10 03:23:12;;;;;;;7.95;2.13;;;;;;;9.14;97.56;100280.69;5053112;28;20528;-70
2023/01/10 03:25:39;;;;;;;6.28;2.17;;;;;;;9.27;97.92;100282.09;5054799;28;20040;-68
2023/01/10 03:28:10;;;;;;;9.27;3.20;;;;;;;9.27;97.12;100284.78;5033601;28;20033;-68
2023/01/10 03:30:50;;;;;;;5.03;2.75;;;;;;;9.28;96.64;100299.78;5046815;28;20045;-72
2023/01/10 03:33:20;;;;;;;5.53;2.42;;;;;;;9.22;97.70;100297.75;5054885;28;20063;-68
2023/01/10 03:35:51;;;;;;;2.25;1.67;;;;;;;9.16;98.06;100293.78;5053521;28;20040;-68
2023/01/10 03:38:31;;;;;;;8.65;1.83;;;;;;;9.22;97.57;100305.78;5052416;28;20086;-68
2023/01/10 03:41:25;;;;;;;7.65;2.33;;;;;;;9.20;97.50;100300.00;5054461;28;20041;-68
2023/01/10 03:47:06;;;;;;;4.60;2.35;;;;;;;9.20;97.08;100310.75;5031854;28;20052;-68
2023/01/10 03:49:36;;;;;;;2.40;1.30;;;;;;;9.19;97.34;100309.19;5047712;28;20037;-69
2023/01/10 03:52:03;;;;;;;6.72;1.98;;;;;;;9.22;97.59;100321.91;5046907;28;20500;-70
2023/01/10 03:54:29;;;;;;;8.00;2.13;;;;;;;9.23;96.96;100332.34;5041105;28;20033;-70
2023/01/10 03:56:55;;;;;;;4.93;2.08;;;;;;;9.21;96.81;100331.91;5044419;28;20448;-70
2023/01/10 03:59:24;;;;;;;4.57;1.95;;;;;;;9.03;96.77;100339.59;5062489;28;20036;-70
2023/01/10 04:01:50;;;;;;;5.30;2.28;;;;;;;8.97;96.91;100343.69;5051059;28;20060;-70
2023/01/10 04:04:15;;;;;;;6.78;2.50;;;;;;;8.98;97.25;100347.91;5051611;28;20458;-70
2023/01/10 04:06:41;;;;;;;6.75;2.17;;;;;;;8.98;96.68;100366.69;5031455;28;20405;-70
2023/01/10 04:09:07;;;;;;;4.70;1.48;;;;;;;9.00;96.67;100369.81;5051582;28;20048;-70
2023/01/10 04:11:32;;;;;;;2.25;1.33;;;;;;;8.99;96.64;100376.34;5048922;28;20029;-69
2023/01/10 04:13:58;;;;;;;4.43;1.80;;;;;;;8.98;96.57;100374.75;5045776;28;20103;-70
2023/01/10 04:16:23;;;;;;;4.25;1.98;;;;;;;8.93;96.69;100385.78;5038758;28;20029;-70
2023/01/10 04:18:48;;;;;;;3.53;1.92;;;;;;;8.96;96.91;100387.75;5051083;28;20067;-70
2023/01/10 04:21:14;;;;;;;3.30;1.52;;;;;;;8.85;96.79;100388.66;5058642;28;20032;-69
2023/01/10 04:23:39;;;;;;;8.15;1.88;;;;;;;8.89;96.81;100390.28;5049873;28;20542;-70
2023/01/10 04:26:05;;;;;;;3.65;1.95;;;;;;;8.97;96.43;100397.38;5047020;28;20047;-70
2023/01/10 04:28:30;;;;;;;5.38;1.90;;;;;;;8.93;96.98;100396.53;5036815;28;20029;-70
2023/01/10 04:30:56;;;;;;;1.88;1.20;;;;;;;8.92;97.06;100396.88;5052092;28;20048;-70
2023/01/10 04:33:21;;;;;;;6.60;2.03;;;;;;;8.92;95.95;100405.69;5034859;28;20028;-69
2023/01/10 04:35:48;;;;;;;2.35;1.50;;;;;;;8.82;96.07;100411.63;5031747;28;20160;-70
2023/01/10 04:38:14;;;;;;;3.15;1.45;;;;;;;8.77;96.60;100417.25;5048860;28;20083;-69
2023/01/10 04:40:40;;;;;;;3.03;1.33;;;;;;;8.72;96.41;100420.19;5034241;28;20166;-68
2023/01/10 04:43:06;;;;;;;2.22;1.48;;;;;;;8.71;96.94;100429.38;5049427;28;20099;-68
2023/01/10 04:45:31;;;;;;;2.70;1.35;;;;;;;8.63;96.76;100424.19;5155912;22;20068;-69
2023/01/10 04:47:58;;;;;;;3.53;1.27;;;;;;;8.69;97.30;100442.34;5054225;28;20040;-70
2023/01/10 04:50:24;;;;;;;2.15;1.13;;;;;;;8.68;97.08;100440.81;5060649;28;20021;-68
2023/01/10 04:52:49;;;;;;;4.82;1.48;;;;;;;8.67;96.40;100441.16;5048983;28;20032;-68
2023/01/10 04:55:15;;;;;;;4.22;1.73;;;;;;;8.69;96.88;100445.03;5062795;28;20041;-69
2023/01/10 04:57:41;;;;;;;2.30;1.70;;;;;;;8.74;97.03;100446.69;5057156;28;20032;-69
2023/01/10 05:00:07;;;;;;;1.90;1.23;;;;;;;8.70;97.17;100459.25;5060892;28;20774;-68
2023/01/10 05:02:33;;;;;;;1.95;1.10;;;;;;;8.71;96.85;100460.81;5047197;28;20029;-68
2023/01/10 05:04:58;;;;;;;2.88;1.23;;;;;;;8.72;97.48;100465.06;5058337;28;20072;-69
2023/01/10 05:07:24;;;;;;;3.60;1.38;;;;;;;8.71;97.37;100475.00;5057322;28;20036;-69
2023/01/10 05:09:49;;;;;;;3.85;1.02;;;;;;;8.75;96.61;100464.38;5055063;28;20095;-69
2023/01/10 05:12:15;;;;;;;1.98;1.20;;;;;;;8.77;97.01;100468.25;5058881;28;20480;-67
2023/01/10 05:14:40;;;;;;;2.10;1.25;;;;;;;8.76;96.98;100474.75;5056307;28;20076;-71
2023/01/10 05:17:05;;;;;;;1.27;1.17;;;;;;;8.77;97.24;100478.19;5060527;28;20087;-70
2023/01/10 05:19:51;;;;;;;4.28;1.55;;;;;;;8.71;97.57;100488.41;5052931;28;20029;-69
2023/01/10 05:22:16;;;;;;;6.70;2.05;;;;;;;8.80;97.61;100488.25;5009767;28;20444;-69
2023/01/10 05:24:42;;;;;;;1.38;1.08;;;;;;;8.80;97.89;100490.94;4994744;28;20034;-70
2023/01/10 05:27:07;;;;;;;3.60;1.42;;;;;;;8.85;97.80;100491.47;5006857;28;20049;-69
2023/01/10 05:29:33;;;;;;;3.80;1.30;;;;;;;8.91;97.56;100500.03;5002418;28;20084;-69
2023/01/10 05:31:59;;;;;;;4.10;1.25;;;;;;;8.98;97.48;100511.72;5008103;28;20045;-69
2023/01/10 05:34:25;;;;;;;3.00;1.20;;;;;;;8.96;97.47;100519.34;5008532;28;20034;-69
2023/01/10 05:36:50;;;;;;;4.40;1.40;;;;;;;8.91;97.38;100516.94;5009538;28;20499;-69
2023/01/10 05:39:15;;;;;;;2.13;1.38;;;;;;;8.91;97.11;100522.31;4992758;28;20099;-68
2023/01/10 05:41:41;;;;;;;1.65;1.27;;;;;;;8.95;97.13;100525.06;5008499;28;20045;-69
2023/01/10 05:44:07;;;;;;;2.70;1.35;;;;;;;8.94;97.52;100532.34;4992087;28;20044;-70
2023/01/10 05:46:32;;;;;;;5.30;2.08;;;;;;;8.94;97.17;100536.94;5009406;28;20053;-69
2023/01/10 05:48:58;;;;;;;2.92;1.25;;;;;;;8.91;97.43;100537.63;5002666;28;20042;-69
2023/01/10 05:51:23;;;;;;;5.32;1.30;;;;;;;8.93;97.53;100541.53;4992452;28;20201;-69
2023/01/10 05:53:49;;;;;;;2.42;1.02;;;;;;;8.85;96.87;100547.84;5003134;28;20128;-70
2023/01/10 05:56:14;;;;;;;2.92;0.80;;;;;;;8.93;97.10;100548.81;5000361;28;20510;-69
2023/01/10 05:58:39;;;;;;;1.10;1.00;;;;;;;8.92;96.89;100545.34;5001965;28;20041;-70
2023/01/10 06:01:05;;;;;;;6.00;1.55;;;;;;;8.95;97.47;100547.34;5040920;28;20473;-70
2023/01/10 06:03:30;;;;;;;2.00;1.23;;;;;;;8.94;97.16;100559.19;5048550;28;20112;-68
2023/01/10 06:05:56;;;;;;;3.58;1.38;;;;;;;8.84;96.85;100559.72;5049871;28;20037;-70
2023/01/10 06:08:22;;;;;;;5.85;1.48;;;;;;;8.89;97.26;100567.50;5053646;28;20029;-70
2023/01/10 06:10:48;;;;;;;8.48;1.08;;;;;;;8.79;97.10;100568.03;5051561;28;20025;-70
2023/01/10 06:13:13;;;;;;;3.83;0.82;;;;;;;8.75;96.72;100572.50;5048756;28;20040;-68
2023/01/10 06:15:38;;;;;;;7.97;1.27;;;;;;;8.72;96.95;100573.22;5050065;28;20076;-67
2023/01/10 06:18:04;;;;;;;4.65;1.63;;;;;;;8.67;96.91;100576.13;5055713;28;20024;-70
2023/01/10 06:20:30;;;;;;;5.78;1.55;;;;;;;8.66;96.99;100589.91;5047392;28;20462;-69
2023/01/10 06:22:55;;;;;;;3.60;1.85;;;;;;;8.59;96.88;100579.78;5040456;28;20111;-69
2023/01/10 06:25:21;;;;;;;2.42;0.98;;;;;;;8.56;97.47;100576.97;5030015;28;20052;-69
2023/01/10 06:27:46;;;;;;;1.25;1.05;;;;;;;8.58;97.31;100585.47;5037564;28;20071;-69
2023/01/10 06:30:13;;;;;;;3.63;1.20;;;;;;;8.63;97.06;100595.97;5042728;28;20025;-69
2023/01/10 06:32:39;;;;;;;2.17;1.08;;;;;;;8.64;96.81;100601.00;5030033;28;20052;-71
2023/01/10 06:35:05;;;;;;;1.35;1.25;;;;;;;8.59;96.62;100611.97;5030615;28;20033;-69
2023/01/10 06:37:31;;;;;;;4.15;1.40;;;;;;;8.51;97.11;100623.63;5021665;28;20438;-69
2023/01/10 06:39:57;;;;;;;9.18;1.65;;;;;;;8.44;97.38;100614.63;5035845;28;20039;-70
2023/01/10 06:42:22;;;;;;;3.45;1.15;;;;;;;8.48;97.04;100610.13;5029322;28;20025;-69
2023/01/10 06:44:48;;;;;;;5.68;1.50;;;;;;;8.46;97.43;100618.50;5035724;28;20109;-67
2023/01/10 06:47:13;;;;;;;2.85;1.67;;;;;;;8.46;96.87;100621.19;5046235;28;20033;-70
2023/01/10 06:49:38;;;;;;;6.97;1.83;;;;;;;8.43;96.61;100634.50;5032476;28;20059;-71
2023/01/10 06:52:04;;;;;;;3.30;1.45;;;;;;;8.46;96.91;100634.59;5034825;28;20041;-70
2023/01/10 06:54:30;;;;;;;6.00;1.88;;;;;;;8.44;96.90;100642.19;5031916;28;20079;-70
2023/01/10 06:56:55;;;;;;;12.15;1.70;;;;;;;8.43;96.75;100640.66;5037699;28;20496;-67
2023/01/10 06:59:20;;;;;;;1.88;1.60;;;;;;;8.31;96.86;100642.56;5031382;28;20120;-69
2023/01/10 07:01:46;;;;;;;2.83;1.50;;;;;;;8.30;96.73;100646.41;5037259;28;20029;-66
2023/01/10 07:04:11;;;;;;;3.25;1.17;;;;;;;8.26;96.84;100651.66;5036964;28;20064;-68
2023/01/10 07:06:38;;;;;;;6.00;1.50;;;;;;;8.21;96.89;100646.47;5040167;28;20040;-69
2023/01/10 07:09:05;;;;;;;3.47;1.15;;;;;;;8.22;97.43;100653.44;5048824;28;20055;-69
2023/01/10 07:11:33;;;;;;;3.92;1.85;;;;;;;8.24;97.00;100661.91;5032747;28;20117;-69
2023/01/10 07:14:00;;;;;;;2.08;1.52;;;;;;;8.25;96.63;100676.13;5036389;28;20025;-70
2023/01/10 07:16:25;;;;;;;5.25;1.85;;;;;;;8.24;96.39;100669.97;5061071;28;20036;-68
2023/01/10 07:18:50;;;;;;;3.33;1.80;;;;;;;8.18;96.98;100674.78;5034219;28;20041;-68
2023/01/10 07:21:18;;;;;;;4.45;2.13;;;;;;;8.20;97.26;100677.13;5031405;28;20033;-68
2023/01/10 07:23:48;;;;;;;3.55;1.73;;;;;;;8.15;96.93;100674.66;5047539;28;20022;-69
2023/01/10 07:26:16;;;;;;;4.00;1.20;;;;;;;8.14;97.06;100678.47;5034373;28;20863;-69
2023/01/10 07:28:42;;;;;;;3.38;1.50;;;;;;;8.16;96.97;100677.03;5048819;28;20497;-69
2023/01/10 07:31:10;;;;;;;3.53;1.88;;;;;;;8.17;96.68;100686.63;5037910;28;20070;-69
2023/01/10 07:33:35;;;;;;;3.42;1.48;;;;;;;8.12;96.56;100686.84;5056958;28;20029;-68
2023/01/10 07:36:01;;;;;;;6.38;2.22;;;;;;;8.15;96.53;100685.38;5060567;28;20044;-69
2023/01/10 07:38:27;;;;;;;7.53;2.15;;;;;;;8.14;96.62;100691.88;5059618;28;20029;-69
2023/01/10 07:40:53;;;;;;;3.38;1.48;;;;;;;8.09;97.45;100692.88;5048488;28;20370;-67
2023/01/10 07:43:18;;;;;;;6.18;2.00;;;;;;;8.20;96.94;100693.22;5034584;28;20040;-70
2023/01/10 07:45:44;;;;;;;2.72;2.00;;;;;;;8.21;96.79;100698.22;5033801;28;20033;-68
2023/01/10 07:48:09;;;;;;;4.40;2.58;;;;;;;8.23;97.00;100705.19;5031780;28;20059;-68
2023/01/10 07:50:36;;;;;;;5.95;1.90;;;;;;;8.28;96.84;100705.75;5034655;28;20061;-66
2023/01/10 07:53:23;;;;;;;3.97;1.85;;;;;;;8.28;97.04;100707.66;5054465;28;20525;-68
2023/01/10 07:55:49;;;;;;;3.70;2.22;;;;;;;8.25;96.80;100708.31;4998121;28;20553;-69
2023/01/10 07:58:14;;;;;;;5.80;2.25;;;;;;;8.28;97.00;100718.38;4999469;28;20088;-68
2023/01/10 08:00:40;;;;;;;3.90;1.90;;;;;;;8.23;97.01;100705.94;5006722;28;20045;-67
2023/01/10 08:03:05;;;;;;;6.07;2.28;;;;;;;8.24;97.22;100710.19;5001458;28;20081;-67
2023/01/10 08:05:31;;;;;;;1.70;1.35;;;;;;;8.27;97.56;100709.53;5007570;28;20037;-69
2023/01/10 08:08:06;;;;;;;3.97;1.70;;;;;;;8.29;97.52;100712.66;5002321;28;20041;-68
2023/01/10 08:10:33;;;;;;;8.23;1.85;;;;;;;8.32;97.06;100709.31;5010129;28;20156;-69
2023/01/10 08:12:59;;;;;;;7.85;1.80;;;;;;;8.33;97.66;100712.78;4993520;28;20569;-69
2023/01/10 08:15:24;;;;;;;5.50;2.10;;;;;;;8.34;97.24;100717.81;5010033;28;20042;-66
2023/01/10 08:17:50;;;;;;;3.88;1.65;;;;;;;8.43;97.58;100715.00;5009300;28;20109;-68
2023/01/10 08:20:15;;;;;;;5.60;1.52;;;;;;;8.48;97.05;100717.47;4996522;28;20121;-70
2023/01/10 08:22:41;;;;;;;3.33;1.75;;;;;;;8.52;97.26;100727.16;4996968;28;20499;-70
2023/01/10 08:25:07;;;;;;;7.93;2.40;;;;;;;8.56;97.44;100729.94;4992654;28;20617;-67
2023/01/10 08:27:32;;;;;;;6.07;2.25;;;;;;;8.59;97.26;100738.13;4997468;28;20026;-69
2023/01/10 08:29:58;;;;;;;5.78;2.22;;;;;;;8.63;96.91;100743.59;5003350;28;20145;-69
2023/01/10 08:32:23;;;;;;;4.90;2.25;;;;;;;8.66;96.53;100743.69;5009089;28;20180;-70
2023/01/10 08:34:49;;;;;;;7.82;2.38;;;;;;;8.66;96.92;100740.22;5050646;28;20016;-69
2023/01/10 08:37:14;;;;;;;5.28;1.40;;;;;;;8.58;97.30;100749.97;5050318;28;20129;-69
2023/01/10 08:39:40;;;;;;;4.15;2.33;;;;;;;8.65;97.52;100754.78;5046235;28;20036;-69
2023/01/10 08:42:05;;;;;;;6.47;2.17;;;;;;;8.64;96.95;100751.31;5051604;28;20035;-68
2023/01/10 08:44:31;;;;;;;7.15;2.65;;;;;;;8.65;97.29;100752.09;5046560;28;20033;-66
2023/01/10 08:46:56;;;;;;;3.90;2.05;;;;;;;8.65;97.12;100754.78;5055110;28;20103;-68
2023/01/10 08:49:22;;;;;;;5.47;1.85;;;;;;;8.69;98.00;100755.66;5049245;28;20120;-67
2023/01/10 08:51:47;;;;;;;5.35;2.50;;;;;;;8.75;97.32;100765.06;5043691;28;20046;-69
2023/01/10 08:54:13;;;;;;;4.55;2.50;;;;;;;8.74;97.32;100764.25;5043926;28;20435;-68
2023/01/10 08:56:39;;;;;;;4.82;2.13;;;;;;;8.81;97.65;100774.41;5048787;28;20100;-68
2023/01/10 08:59:05;;;;;;;9.02;1.55;;;;;;;8.84;97.24;100781.81;5048143;28;20400;-69
2023/01/10 09:01:30;;;;;;;4.35;1.90;;;;;;;8.85;97.24;100784.13;5045396;28;20033;-70
2023/01/10 09:03:56;;;;;;;9.57;2.22;;;;;;;8.92;97.44;100784.34;5048109;28;20094;-68
2023/01/10 09:06:22;;;;;;;10.70;2.92;;;;;;;8.96;96.18;100793.28;5050641;28;20044;-69
2023/01/10 09:08:48;;;;;;;8.82;2.70;;;;;;;8.91;97.15;100795.41;5064565;28;20058;-67
2023/01/10 09:11:14;;;;;;;5.22;2.03;;;;;;;8.91;97.58;100790.03;5054662;28;20033;-69
2023/01/10 09:13:39;;;;;;;7.10;2.15;;;;;;;8.86;97.33;100785.72;5035483;28;20033;-69
2023/01/10 09:16:05;;;;;;;5.43;2.03;;;;;;;8.91;97.55;100776.63;5033464;28;20237;-69
2023/01/10 09:18:30;;;;;;;2.33;1.70;;;;;;;8.98;96.96;100758.81;5043104;28;20680;-67
2023/01/10 09:20:56;;;;;;;12.57;2.75;;;;;;;9.00;97.55;100755.81;5036239;28;20049;-69
2023/01/10 09:23:23;;;;;;;7.97;2.55;;;;;;;8.87;97.09;100752.34;5062506;28;20041;-69
2023/01/10 09:25:51;;;;;;;8.20;2.60;;;;;;;8.99;96.89;100759.59;5042732;28;20040;-69
2023/01/10 09:28:17;;;;;;;3.00;1.52;;;;;;;9.04;97.13;100760.13;5048951;28;20028;-69
2023/01/10 09:30:44;;;;;;;5.95;2.42;;;;;;;9.12;95.72;100763.78;5033546;28;20029;-68
2023/01/10 09:33:10;;;;;;;5.68;1.95;;;;;;;9.04;96.31;100767.41;5031397;28;20040;-69
2023/01/10 09:35:37;;;;;;;7.57;1.90;;;;;;;9.08;96.09;100777.13;5038553;28;20029;-68
2023/01/10 09:38:04;;;;;;;5.72;2.00;;;;;;;9.08;96.76;100787.88;5059071;28;20099;-69
2023/01/10 09:41:00;;;;;;;4.85;2.33;;;;;;;9.11;96.34;100789.09;5044165;28;20091;-67
2023/01/10 09:43:59;;;;;;;3.22;2.03;;;;;;;9.00;96.82;100780.72;5053303;28;20045;-69
2023/01/10 09:46:54;;;;;;;3.55;1.95;;;;;;;9.08;96.85;100789.78;5063366;28;20094;-68
2023/01/10 09:49:35;;;;;;;7.68;2.03;;;;;;;9.16;96.45;100817.63;5051339;28;20037;-69
2023/01/10 09:52:07;;;;;;;11.90;2.60;;;;;;;9.18;95.83;100831.50;5061029;28;20033;-69
2023/01/10 09:54:40;;;;;;;3.15;1.92;;;;;;;9.03;96.39;100827.63;5052004;28;20024;-69
2023/01/10 09:57:14;;;;;;;9.20;2.25;;;;;;;8.99;97.38;100835.59;5048011;28;20065;-69
2023/01/10 09:59:41;;;;;;;8.70;3.08;;;;;;;9.07;96.76;100842.72;5032808;28;20111;-67
2023/01/10 10:02:25;;;;;;;5.45;2.45;;;;;;;9.11;96.75;100853.56;5032736;28;20029;-69
2023/01/10 10:04:59;;;;;;;5.82;2.17;;;;;;;9.05;96.78;100853.03;5030762;28;20029;-68
2023/01/10 10:07:25;;;;;;;8.40;2.60;;;;;;;9.13;96.12;100839.78;5032512;28;20061;-68
2023/01/10 10:09:50;;;;;;;5.45;2.28;;;;;;;9.10;96.37;100839.34;5030247;28;20099;-70
2023/01/10 10:12:34;;;;;;;9.48;2.90;;;;;;;9.10;96.68;100833.97;5043587;28;20033;-68
2023/01/10 10:15:05;;;;;;;9.35;2.80;;;;;;;9.12;96.20;100839.00;5055346;28;20604;-69
2023/01/10 10:17:49;;;;;;;;;;;;;;;9.16;96.24;100847.16;5032217;28;20024;-67
2023/01/10 10:20:36;;;;;;;12.02;2.85;;;;;;;9.22;96.55;100840.44;5026846;28;19917;-69
2023/01/10 10:23:07;;;;;;;6.63;2.53;;;;;;;9.23;95.90;100840.13;5027571;28;20041;-69
2023/01/10 10:25:59;;;;;;;5.32;2.50;;;;;;;9.22;95.75;100838.53;5030152;28;20029;-68
2023/01/10 10:28:35;;;;;;;;;;;;;;;9.20;95.91;100843.47;5046113;28;20041;-66
2023/01/10 10:31:25;;;;;;;7.20;2.35;;;;;;;9.22;95.91;100837.75;5071743;28;19920;-68
2023/01/10 10:34:03;;;;;;;13.05;2.55;;;;;;;9.26;95.39;100833.25;5050906;28;20129;-70
2023/01/10 10:36:52;;;;;;;5.47;2.22;;;;;;;9.19;96.17;100833.06;5048993;28;20048;-69
2023/01/10 10:39:37;;;;;;;9.25;2.70;;;;;;;9.33;95.31;100831.56;5051113;28;20032;-69
2023/01/10 10:42:05;;;;;;;7.50;2.40;;;;;;;9.32;95.23;100837.28;5064141;28;20028;-69
2023/01/10 10:44:42;;;;;;;7.20;2.42;;;;;;;9.35;95.28;100832.00;5065178;22;20053;-83
2023/01/10 10:47:22;;;;;;;4.35;2.40;;;;;;;9.39;95.15;100835.56;5000426;28;20068;-83
2023/01/10 10:49:58;;;;;;;6.78;2.60;;;;;;;9.41;95.41;100832.53;5020078;28;20096;-83
2023/01/10 10:52:46;;;;;;;9.23;3.00;;;;;;;9.44;94.57;100845.31;5020861;28;20091;-83
2023/01/10 10:55:14;;;;;;;6.72;3.25;;;;;;;9.35;95.21;100836.59;4941542;29;20565;-83
2023/01/10 10:57:40;;;;;;;4.15;2.40;;;;;;;9.41;94.80;100843.28;4923567;28;20604;-83
2023/01/10 11:00:12;;;;;;;6.07;2.13;;;;;;;9.40;95.27;100844.41;4948313;28;20098;-83
2023/01/10 11:02:44;;;;;;;3.80;2.10;;;;;;;9.42;95.07;100844.84;4951956;28;20042;-83
2023/01/10 11:05:21;;;;;;;7.80;2.70;;;;;;;9.41;95.06;100845.97;4937881;29;20047;-83
2023/01/10 11:07:49;;;;;;;6.45;3.08;;;;;;;9.38;95.01;100847.44;4929391;29;20040;-83
2023/01/10 11:10:34;;;;;;;5.95;2.50;;;;;;;9.45;94.37;100849.53;4912238;28;20054;-83
2023/01/10 11:13:02;;;;;;;4.63;1.88;;;;;;;9.25;94.97;100845.94;4935390;29;20055;-82
2023/01/10 11:15:40;;;;;;;2.20;1.63;;;;;;;9.30;95.05;100850.25;4916578;29;20041;-82
2023/01/10 11:18:10;;;;;;;4.03;2.15;;;;;;;9.29;95.24;100854.84;4918365;29;20480;-81
2023/01/10 11:20:37;;;;;;;3.92;2.00;;;;;;;9.35;94.52;100858.88;4940517;29;20032;-83
2023/01/10 11:23:06;;;;;;;2.90;2.00;;;;;;;9.39;94.74;100864.38;4933560;29;20524;-82
2023/01/10 11:25:52;;;;;;;5.20;2.20;;;;;;;9.45;94.81;100857.59;4948327;29;20041;-83
2023/01/10 11:28:22;;;;;;;6.82;3.45;;;;;;;9.41;94.47;100862.09;4881288;29;20076;-81
2023/01/10 11:30:49;;;;;;;9.77;2.95;;;;;;;9.46;94.33;100864.56;4882852;29;20488;-83
2023/01/10 11:33:22;;;;;;;6.90;2.67;;;;;;;9.50;94.01;100868.91;4937722;28;20047;-83
2023/01/10 11:36:08;;;;;;;8.00;2.83;;;;;;;9.50;93.49;100871.59;4955464;29;20043;-83
2023/01/10 11:38:34;;;;;;;7.30;2.35;;;;;;;9.48;94.01;100868.47;4955303;29;20096;-81
2023/01/10 11:41:05;;;;;;;5.55;2.50;;;;;;;9.52;93.51;100865.88;4938454;29;20023;-83
2023/01/10 11:43:40;;;;;;;4.97;2.17;;;;;;;9.46;93.92;100865.34;4936577;29;20486;-83
2023/01/10 11:46:13;;;;;;;5.55;2.58;;;;;;;9.48;94.34;100865.78;4938039;29;20830;-83
2023/01/10 11:48:46;;;;;;;8.77;2.33;;;;;;;9.58;94.42;100872.59;4939005;29;20039;-82
2023/01/10 11:51:27;;;;;;;8.15;2.33;;;;;;;9.68;93.54;100872.84;4939474;29;20368;-83
2023/01/10 11:54:02;;;;;;;7.65;2.75;;;;;;;9.61;94.04;100869.97;4936560;29;20403;-81